createdAt,value
2018-12-16T00:00:02.172Z,22.50
2018-12-16T00:01:02.170Z,21.20
2018-12-16T00:02:02.345Z,20.20
2018-12-16T00:03:02.349Z,21.50
2018-12-16T00:04:02.133Z,21.60
2018-12-16T00:05:02.117Z,23.00
2018-12-16T00:06:02.120Z,21.80
2018-12-16T00:07:02.097Z,21.90
2018-12-16T00:08:02.097Z,20.50
2018-12-16T00:09:02.099Z,21.10
2018-12-16T00:10:02.070Z,21.40
2018-12-16T00:11:02.049Z,21.50
2018-12-16T00:12:02.051Z,21.50
2018-12-16T00:13:02.035Z,21.70
2018-12-16T00:14:02.036Z,21.20
2018-12-16T00:15:02.020Z,21.20
2018-12-16T00:16:02.086Z,21.50
2018-12-16T00:17:02.020Z,20.60
2018-12-16T00:18:02.046Z,22.50
2018-12-16T00:19:02.009Z,22.30
2018-12-16T00:20:01.975Z,22.20
2018-12-16T00:21:01.984Z,22.40
2018-12-16T00:22:01.951Z,21.20
2018-12-16T00:23:01.943Z,21.90
2018-12-16T00:24:01.937Z,20.50
2018-12-16T00:25:01.918Z,20.80
2018-12-16T00:26:01.906Z,21.30
2018-12-16T00:27:01.921Z,20.70
2018-12-16T00:28:01.893Z,21.80
2018-12-16T00:29:01.883Z,22.90
2018-12-16T00:30:01.887Z,22.70
2018-12-16T00:31:01.867Z,21.40
2018-12-16T00:32:02.060Z,22.60
2018-12-16T00:33:01.848Z,23.70
2018-12-16T00:34:01.844Z,22.50
2018-12-16T00:35:01.822Z,23.80
2018-12-16T00:36:01.836Z,21.10
2018-12-16T00:37:01.803Z,22.00
2018-12-16T00:38:01.797Z,21.90
2018-12-16T00:39:01.796Z,22.50
2018-12-16T00:40:01.795Z,24.10
2018-12-16T00:41:01.772Z,22.30
2018-12-16T00:42:01.764Z,23.30
2018-12-16T00:43:01.746Z,22.20
2018-12-16T00:44:01.734Z,22.10
2018-12-16T00:45:01.741Z,23.30
2018-12-16T00:46:01.724Z,24.60
2018-12-16T00:47:01.712Z,23.60
2018-12-16T00:48:01.926Z,23.90
2018-12-16T00:49:01.689Z,23.20
2018-12-16T00:50:01.885Z,22.20
2018-12-16T00:51:01.672Z,22.40
2018-12-16T00:52:01.664Z,22.60
2018-12-16T00:53:01.647Z,23.80
2018-12-16T00:54:01.638Z,24.30
2018-12-16T00:55:01.636Z,23.90
2018-12-16T00:56:01.832Z,22.90
2018-12-16T00:57:01.617Z,24.70
2018-12-16T00:58:01.807Z,24.00
2018-12-16T00:59:01.598Z,24.10
2018-12-16T01:00:01.591Z,23.30
2018-12-16T01:01:01.579Z,24.30
2018-12-16T01:02:01.569Z,23.80
2018-12-16T01:03:01.556Z,23.60
2018-12-16T01:04:01.554Z,23.70
2018-12-16T01:05:01.544Z,23.20
2018-12-16T01:06:01.532Z,22.90
2018-12-16T01:07:01.523Z,23.40
2018-12-16T01:08:01.513Z,23.50
2018-12-16T01:09:01.501Z,24.40
2018-12-16T01:10:01.494Z,24.20
2018-12-16T01:11:01.477Z,23.20
2018-12-16T01:12:01.487Z,23.10
2018-12-16T01:13:01.532Z,23.50
2018-12-16T01:14:01.458Z,23.70
2018-12-16T01:15:01.443Z,24.10
2018-12-16T01:16:01.437Z,24.70
2018-12-16T01:17:01.438Z,24.70
2018-12-16T01:18:01.420Z,22.90
2018-12-16T01:19:01.406Z,24.30
2018-12-16T01:20:01.609Z,23.10
2018-12-16T01:21:01.406Z,25.20
2018-12-16T01:22:01.376Z,23.60
2018-12-16T01:23:01.381Z,23.80
2018-12-16T01:24:01.563Z,25.20
2018-12-16T01:25:01.351Z,24.40
2018-12-16T01:26:01.342Z,25.30
2018-12-16T01:27:01.532Z,26.20
2018-12-16T01:28:01.319Z,24.00
2018-12-16T01:29:01.330Z,25.30
2018-12-16T01:30:01.300Z,23.50
2018-12-16T01:31:01.293Z,25.10
2018-12-16T01:32:01.286Z,24.00
2018-12-16T01:33:01.279Z,23.90
2018-12-16T01:34:01.261Z,24.00
2018-12-16T01:35:01.264Z,23.00
2018-12-16T01:36:01.238Z,23.70
2018-12-16T01:37:01.240Z,24.10
2018-12-16T01:38:01.230Z,24.50
2018-12-16T01:39:01.637Z,24.70
2018-12-16T01:40:01.428Z,22.60
2018-12-16T01:41:01.191Z,23.60
2018-12-16T01:42:01.418Z,23.80
2018-12-16T01:43:01.385Z,22.50
2018-12-16T01:44:01.173Z,23.40
2018-12-16T01:45:01.164Z,23.60
2018-12-16T01:46:01.160Z,24.90
2018-12-16T01:47:01.208Z,23.70
2018-12-16T01:48:01.343Z,21.30
2018-12-16T01:49:01.127Z,25.40
2018-12-16T01:50:01.126Z,24.50
2018-12-16T01:51:01.099Z,24.30
2018-12-16T01:52:01.103Z,24.00
2018-12-16T01:53:01.287Z,23.90
2018-12-16T01:54:01.099Z,26.40
2018-12-16T01:55:01.078Z,25.10
2018-12-16T01:56:01.258Z,23.20
2018-12-16T01:57:01.068Z,25.00
2018-12-16T01:58:01.046Z,24.20
2018-12-16T01:59:01.034Z,24.30
2018-12-16T02:00:01.917Z,24.30
2018-12-16T02:01:01.003Z,25.80
2018-12-16T02:02:00.998Z,25.60
2018-12-16T02:03:01.193Z,23.40
2018-12-16T02:04:00.981Z,23.90
2018-12-16T02:05:00.981Z,23.40
2018-12-16T02:06:00.964Z,24.00
2018-12-16T02:07:00.949Z,23.70
2018-12-16T02:08:00.953Z,23.80
2018-12-16T02:09:00.924Z,26.30
2018-12-16T02:10:00.942Z,25.00
2018-12-16T02:11:01.137Z,24.00
2018-12-16T02:12:01.119Z,26.00
2018-12-16T02:13:00.892Z,25.50
2018-12-16T02:14:01.094Z,27.30
2018-12-16T02:15:00.876Z,22.90
2018-12-16T02:16:00.861Z,27.90
2018-12-16T02:17:00.858Z,23.50
2018-12-16T02:18:00.861Z,24.70
2018-12-16T02:19:00.842Z,28.60
2018-12-16T02:20:00.843Z,25.80
2018-12-16T02:21:00.829Z,28.50
2018-12-16T02:22:00.813Z,26.70
2018-12-16T02:23:00.801Z,28.00
2018-12-16T02:24:01.001Z,29.20
2018-12-16T02:25:00.782Z,31.10
2018-12-16T02:26:00.772Z,28.30
2018-12-16T02:27:00.765Z,30.50
2018-12-16T02:28:00.762Z,28.90
2018-12-16T02:29:00.949Z,28.70
2018-12-16T02:30:00.739Z,31.80
2018-12-16T02:31:00.734Z,29.00
2018-12-16T02:32:00.717Z,30.50
2018-12-16T02:33:00.715Z,30.40
2018-12-16T02:34:00.705Z,30.40
2018-12-16T02:35:00.690Z,34.00
2018-12-16T02:36:00.674Z,31.60
2018-12-16T02:37:00.873Z,30.80
2018-12-16T02:38:00.864Z,32.50
2018-12-16T02:39:00.646Z,33.90
2018-12-16T02:40:00.853Z,32.10
2018-12-16T02:41:00.837Z,32.00
2018-12-16T02:42:00.620Z,34.60
2018-12-16T02:43:00.615Z,33.80
2018-12-16T02:44:00.591Z,31.70
2018-12-16T02:45:00.593Z,34.80
2018-12-16T02:46:00.581Z,34.60
2018-12-16T02:47:00.794Z,35.20
2018-12-16T02:48:00.561Z,32.20
2018-12-16T02:49:00.554Z,32.00
2018-12-16T02:50:00.545Z,33.30
2018-12-16T02:51:00.531Z,32.60
2018-12-16T02:52:00.525Z,34.20
2018-12-16T02:53:04.600Z,35.00
2018-12-16T02:54:00.499Z,33.80
2018-12-16T02:55:00.483Z,31.30
2018-12-16T02:56:00.482Z,32.70
2018-12-16T02:57:00.475Z,33.60
2018-12-16T02:58:00.465Z,33.30
2018-12-16T02:59:00.451Z,34.00
2018-12-16T03:00:00.440Z,31.60
2018-12-16T03:01:00.645Z,32.50
2018-12-16T03:02:00.424Z,33.20
2018-12-16T03:03:00.611Z,32.60
2018-12-16T03:04:00.401Z,31.50
2018-12-16T03:05:00.410Z,33.80
2018-12-16T03:06:00.615Z,31.10
2018-12-16T03:07:00.380Z,32.40
2018-12-16T03:08:00.373Z,31.60
2018-12-16T03:09:00.350Z,30.60
2018-12-16T03:10:00.350Z,33.10
2018-12-16T03:11:00.547Z,31.30
2018-12-16T03:12:00.321Z,32.40
2018-12-16T03:13:00.337Z,30.10
2018-12-16T03:14:00.319Z,32.00
2018-12-16T03:15:00.317Z,29.40
2018-12-16T03:16:00.283Z,30.50
2018-12-16T03:17:00.269Z,31.30
2018-12-16T03:18:00.282Z,31.80
2018-12-16T03:19:00.311Z,33.40
2018-12-16T03:20:00.241Z,32.50
2018-12-16T03:21:00.252Z,28.90
2018-12-16T03:22:00.231Z,29.40
2018-12-16T03:23:00.215Z,30.90
2018-12-16T03:24:00.209Z,32.10
2018-12-16T03:25:00.397Z,29.60
2018-12-16T03:26:00.402Z,33.10
2018-12-16T03:27:00.180Z,29.20
2018-12-16T03:28:00.177Z,29.80
2018-12-16T03:29:00.392Z,30.30
2018-12-16T03:30:00.144Z,30.20
2018-12-16T03:31:00.136Z,30.30
2018-12-16T03:32:00.157Z,32.10
2018-12-16T03:33:00.111Z,30.20
2018-12-16T03:34:00.111Z,30.50
2018-12-16T03:35:00.093Z,32.30
2018-12-16T03:36:00.093Z,30.30
2018-12-16T03:37:00.080Z,32.30
2018-12-16T03:38:00.305Z,31.50
2018-12-16T03:39:00.262Z,32.70
2018-12-16T03:40:00.044Z,33.00
2018-12-16T03:41:00.035Z,32.70
2018-12-16T03:42:00.024Z,32.00
2018-12-16T03:43:00.055Z,30.90
2018-12-16T03:44:00.221Z,31.70
2018-12-16T03:45:00.016Z,34.80
2018-12-16T03:46:00.210Z,31.30
2018-12-16T03:47:00.185Z,32.70
2018-12-16T03:47:59.975Z,33.40
2018-12-16T03:48:59.957Z,32.10
2018-12-16T03:49:59.954Z,33.60
2018-12-16T03:50:59.967Z,31.80
2018-12-16T03:52:00.132Z,31.50
2018-12-16T03:52:59.920Z,30.10
2018-12-16T03:53:59.919Z,32.70
2018-12-16T03:54:59.901Z,30.50
2018-12-16T03:56:00.092Z,32.80
2018-12-16T03:56:59.893Z,32.10
2018-12-16T03:57:59.890Z,32.60
2018-12-16T03:58:59.863Z,31.10
2018-12-16T03:59:59.858Z,32.20
2018-12-16T04:00:59.840Z,32.90
2018-12-16T04:02:00.051Z,32.50
2018-12-16T04:03:00.033Z,32.70
2018-12-16T04:03:59.821Z,33.10
2018-12-16T04:05:00.006Z,35.90
2018-12-16T04:05:59.794Z,32.80
2018-12-16T04:06:59.787Z,31.20
2018-12-16T04:07:59.772Z,33.20
2018-12-16T04:08:59.762Z,32.10
2018-12-16T04:09:59.759Z,33.50
2018-12-16T04:10:59.756Z,33.20
2018-12-16T04:11:59.743Z,34.30
2018-12-16T04:12:59.941Z,32.30
2018-12-16T04:13:59.708Z,33.10
2018-12-16T04:14:59.715Z,30.70
2018-12-16T04:15:59.918Z,32.80
2018-12-16T04:16:59.695Z,33.30
2018-12-16T04:17:59.685Z,35.00
2018-12-16T04:18:59.667Z,33.70
2018-12-16T04:19:59.667Z,33.40
2018-12-16T04:20:59.656Z,32.50
2018-12-16T04:21:59.640Z,33.10
2018-12-16T04:22:59.858Z,33.90
2018-12-16T04:23:59.616Z,34.90
2018-12-16T04:24:59.818Z,34.20
2018-12-16T04:25:59.618Z,37.70
2018-12-16T04:26:59.587Z,37.00
2018-12-16T04:27:59.600Z,38.50
2018-12-16T04:28:59.571Z,38.40
2018-12-16T04:29:59.552Z,38.70
2018-12-16T04:30:59.545Z,39.00
2018-12-16T04:31:59.550Z,37.50
2018-12-16T04:32:59.523Z,39.50
2018-12-16T04:33:59.527Z,39.00
2018-12-16T04:34:59.510Z,40.20
2018-12-16T04:35:59.506Z,44.40
2018-12-16T04:36:59.493Z,41.30
2018-12-16T04:37:59.472Z,40.10
2018-12-16T04:38:59.474Z,40.90
2018-12-16T04:39:59.466Z,41.30
2018-12-16T04:40:59.456Z,41.90
2018-12-16T04:41:59.430Z,42.30
2018-12-16T04:42:59.432Z,41.20
2018-12-16T04:43:59.420Z,42.40
2018-12-16T04:44:59.421Z,42.20
2018-12-16T04:45:59.425Z,40.90
2018-12-16T04:46:59.394Z,41.10
2018-12-16T04:47:59.395Z,41.10
2018-12-16T04:48:59.448Z,39.50
2018-12-16T04:49:59.348Z,40.00
2018-12-16T04:50:59.344Z,39.30
2018-12-16T04:51:59.355Z,40.30
2018-12-16T04:52:59.342Z,41.00
2018-12-16T04:53:59.314Z,39.90
2018-12-16T04:54:59.321Z,42.30
2018-12-16T04:55:59.527Z,41.40
2018-12-16T04:56:59.293Z,39.50
2018-12-16T04:57:59.486Z,42.50
2018-12-16T04:58:59.274Z,41.60
2018-12-16T04:59:59.459Z,41.30
2018-12-16T05:00:59.268Z,41.00
2018-12-16T05:01:59.226Z,42.00
2018-12-16T05:02:59.439Z,42.20
2018-12-16T05:03:59.212Z,41.10
2018-12-16T05:04:59.244Z,39.00
2018-12-16T05:05:59.215Z,43.20
2018-12-16T05:06:59.225Z,39.90
2018-12-16T05:07:59.227Z,44.50
2018-12-16T05:08:59.380Z,40.20
2018-12-16T05:09:59.167Z,40.70
2018-12-16T05:10:59.142Z,39.40
2018-12-16T05:11:59.129Z,40.00
2018-12-16T05:12:59.132Z,39.20
2018-12-16T05:13:59.343Z,39.20
2018-12-16T05:14:59.098Z,38.60
2018-12-16T05:15:59.363Z,38.10
2018-12-16T05:16:59.313Z,39.60
2018-12-16T05:17:59.070Z,37.20
2018-12-16T05:18:59.263Z,38.00
2018-12-16T05:19:59.055Z,40.50
2018-12-16T05:20:59.032Z,39.00
2018-12-16T05:21:59.027Z,37.90
2018-12-16T05:22:59.032Z,36.80
2018-12-16T05:23:59.014Z,36.30
2018-12-16T05:24:58.997Z,36.60
2018-12-16T05:25:58.987Z,37.30
2018-12-16T05:26:58.981Z,36.50
2018-12-16T05:27:59.178Z,37.70
2018-12-16T05:28:58.965Z,37.20
2018-12-16T05:29:58.942Z,37.80
2018-12-16T05:30:58.941Z,36.90
2018-12-16T05:31:58.927Z,36.40
2018-12-16T05:32:58.911Z,37.00
2018-12-16T05:33:58.914Z,35.70
2018-12-16T05:34:58.902Z,37.00
2018-12-16T05:35:58.884Z,38.40
2018-12-16T05:36:58.878Z,38.80
2018-12-16T05:37:58.868Z,35.80
2018-12-16T05:38:58.850Z,36.40
2018-12-16T05:39:58.854Z,37.80
2018-12-16T05:40:58.834Z,35.30
2018-12-16T05:41:58.828Z,37.60
2018-12-16T05:42:58.866Z,35.00
2018-12-16T05:43:59.023Z,37.20
2018-12-16T05:44:58.816Z,36.30
2018-12-16T05:45:58.986Z,35.00
2018-12-16T05:46:58.774Z,36.10
2018-12-16T05:47:58.768Z,36.40
2018-12-16T05:48:58.753Z,36.50
2018-12-16T05:49:58.742Z,35.80
2018-12-16T05:50:58.763Z,36.10
2018-12-16T05:51:58.727Z,36.50
2018-12-16T05:52:58.712Z,35.00
2018-12-16T05:53:58.913Z,34.10
2018-12-16T05:54:58.691Z,34.00
2018-12-16T05:55:58.686Z,35.30
2018-12-16T05:56:58.674Z,35.50
2018-12-16T05:57:58.863Z,36.20
2018-12-16T05:58:58.656Z,34.30
2018-12-16T05:59:58.843Z,36.80
2018-12-16T06:00:58.641Z,35.00
2018-12-16T06:01:58.622Z,35.10
2018-12-16T06:02:58.610Z,36.50
2018-12-16T06:03:58.800Z,34.10
2018-12-16T06:04:58.591Z,34.40
2018-12-16T06:05:58.576Z,35.50
2018-12-16T06:06:58.573Z,35.90
2018-12-16T06:07:58.567Z,36.60
2018-12-16T06:08:58.546Z,35.80
2018-12-16T06:09:58.541Z,36.00
2018-12-16T06:10:58.532Z,33.50
2018-12-16T06:11:58.717Z,35.20
2018-12-16T06:12:58.519Z,34.40
2018-12-16T06:13:58.507Z,35.80
2018-12-16T06:14:58.484Z,35.60
2018-12-16T06:15:58.472Z,37.40
2018-12-16T06:16:58.490Z,34.50
2018-12-16T06:17:58.657Z,35.00
2018-12-16T06:18:58.457Z,34.30
2018-12-16T06:19:58.442Z,35.40
2018-12-16T06:20:58.428Z,34.20
2018-12-16T06:21:58.431Z,34.10
2018-12-16T06:22:58.417Z,37.00
2018-12-16T06:23:58.593Z,35.90
2018-12-16T06:24:58.409Z,35.50
2018-12-16T06:25:58.377Z,37.10
2018-12-16T06:26:58.368Z,37.40
2018-12-16T06:27:58.367Z,36.70
2018-12-16T06:28:58.339Z,32.90
2018-12-16T06:29:58.341Z,34.90
2018-12-16T06:30:58.337Z,35.50
2018-12-16T06:31:58.334Z,36.40
2018-12-16T06:32:58.311Z,34.80
2018-12-16T06:33:58.314Z,32.30
2018-12-16T06:34:58.485Z,36.50
2018-12-16T06:35:58.299Z,32.80
2018-12-16T06:36:58.482Z,34.70
2018-12-16T06:37:58.249Z,32.30
2018-12-16T06:38:58.275Z,34.80
2018-12-16T06:39:58.239Z,33.30
2018-12-16T06:40:58.239Z,33.00
2018-12-16T06:41:58.421Z,34.80
2018-12-16T06:42:58.214Z,34.10
2018-12-16T06:43:58.193Z,33.80
2018-12-16T06:44:58.188Z,32.50
2018-12-16T06:45:58.184Z,32.30
2018-12-16T06:46:58.175Z,33.80
2018-12-16T06:47:58.174Z,33.60
2018-12-16T06:48:58.158Z,33.40
2018-12-16T06:49:58.337Z,34.70
2018-12-16T06:50:58.130Z,35.90
2018-12-16T06:51:58.316Z,34.50
2018-12-16T06:52:58.129Z,33.30
2018-12-16T06:54:02.338Z,33.90
2018-12-16T06:54:58.095Z,32.60
2018-12-16T06:55:58.098Z,34.40
2018-12-16T06:56:58.280Z,33.60
2018-12-16T06:57:58.256Z,32.90
2018-12-16T06:58:58.265Z,33.60
2018-12-16T06:59:58.034Z,33.70
2018-12-16T07:00:58.032Z,32.80
2018-12-16T07:01:58.080Z,35.10
2018-12-16T07:02:58.218Z,31.50
2018-12-16T07:03:58.008Z,32.00
2018-12-16T07:04:58.184Z,31.40
2018-12-16T07:05:57.969Z,32.70
2018-12-16T07:06:57.966Z,32.40
2018-12-16T07:07:57.979Z,34.30
2018-12-16T07:08:57.951Z,32.70
2018-12-16T07:09:57.956Z,33.80
2018-12-16T07:10:57.954Z,32.30
2018-12-16T07:11:57.933Z,31.90
2018-12-16T07:12:57.910Z,33.50
2018-12-16T07:13:57.900Z,32.20
2018-12-16T07:14:57.900Z,31.80
2018-12-16T07:15:57.874Z,31.80
2018-12-16T07:16:57.864Z,33.50
2018-12-16T07:17:57.850Z,31.60
2018-12-16T07:18:57.875Z,34.30
2018-12-16T07:19:57.843Z,33.70
2018-12-16T07:20:57.829Z,32.30
2018-12-16T07:21:57.822Z,32.20
2018-12-16T07:22:57.816Z,32.10
2018-12-16T07:23:57.800Z,32.40
2018-12-16T07:24:57.799Z,32.90
2018-12-16T07:25:57.787Z,32.40
2018-12-16T07:26:57.765Z,31.60
2018-12-16T07:27:57.765Z,29.90
2018-12-16T07:28:57.970Z,32.70
2018-12-16T07:29:57.749Z,30.10
2018-12-16T07:30:57.737Z,32.70
2018-12-16T07:31:57.726Z,32.00
2018-12-16T07:32:57.736Z,31.00
2018-12-16T07:33:57.699Z,32.20
2018-12-16T07:34:57.712Z,34.10
2018-12-16T07:35:57.677Z,32.40
2018-12-16T07:36:57.718Z,34.30
2018-12-16T07:37:57.700Z,35.20
2018-12-16T07:38:57.644Z,33.30
2018-12-16T07:39:57.658Z,31.50
2018-12-16T07:40:57.637Z,33.70
2018-12-16T07:41:57.631Z,34.60
2018-12-16T07:42:57.640Z,33.70
2018-12-16T07:43:57.602Z,31.50
2018-12-16T07:44:57.602Z,32.00
2018-12-16T07:45:57.587Z,31.10
2018-12-16T07:46:57.795Z,32.10
2018-12-16T07:47:57.563Z,34.00
2018-12-16T07:48:57.560Z,32.90
2018-12-16T07:49:57.563Z,32.10
2018-12-16T07:50:57.540Z,32.20
2018-12-16T07:51:57.545Z,31.60
2018-12-16T07:52:57.510Z,31.50
2018-12-16T07:53:57.562Z,33.00
2018-12-16T07:54:57.705Z,31.80
2018-12-16T07:55:57.536Z,31.20
2018-12-16T07:56:57.479Z,31.00
2018-12-16T07:57:57.482Z,32.60
2018-12-16T07:58:57.496Z,35.00
2018-12-16T07:59:57.459Z,32.70
2018-12-16T08:00:57.433Z,32.60
2018-12-16T08:01:57.435Z,29.40
2018-12-16T08:02:57.481Z,33.30
2018-12-16T08:03:57.415Z,31.20
2018-12-16T08:04:57.401Z,32.20
2018-12-16T08:05:57.444Z,31.20
2018-12-16T08:06:57.585Z,31.50
2018-12-16T08:07:57.377Z,30.20
2018-12-16T08:08:57.365Z,30.30
2018-12-16T08:09:57.582Z,30.10
2018-12-16T08:10:57.335Z,30.30
2018-12-16T08:11:57.350Z,31.50
2018-12-16T08:12:57.315Z,32.50
2018-12-16T08:13:57.509Z,32.10
2018-12-16T08:14:57.317Z,30.40
2018-12-16T08:15:57.295Z,31.40
2018-12-16T08:16:57.287Z,31.00
2018-12-16T08:17:57.294Z,32.10
2018-12-16T08:18:57.271Z,31.60
2018-12-16T08:19:57.280Z,32.00
2018-12-16T08:20:57.438Z,30.60
2018-12-16T08:21:57.286Z,33.10
2018-12-16T08:22:57.227Z,31.20
2018-12-16T08:23:57.213Z,32.10
2018-12-16T08:24:57.213Z,33.90
2018-12-16T08:25:57.199Z,32.80
2018-12-16T08:26:57.438Z,33.10
2018-12-16T08:27:57.175Z,31.70
2018-12-16T08:28:57.172Z,32.40
2018-12-16T08:29:57.150Z,34.60
2018-12-16T08:30:57.142Z,32.70
2018-12-16T08:31:57.149Z,31.10
2018-12-16T08:32:57.139Z,31.80
2018-12-16T08:33:57.112Z,34.70
2018-12-16T08:34:57.112Z,30.10
2018-12-16T08:35:57.109Z,33.10
2018-12-16T08:36:57.107Z,32.30
2018-12-16T08:37:57.076Z,32.40
2018-12-16T08:38:57.069Z,32.60
2018-12-16T08:39:57.066Z,31.70
2018-12-16T08:40:57.074Z,32.40
2018-12-16T08:41:57.041Z,32.40
2018-12-16T08:42:57.037Z,31.70
2018-12-16T08:43:57.019Z,31.40
2018-12-16T08:44:57.013Z,32.20
2018-12-16T08:45:57.203Z,32.60
2018-12-16T08:46:57.032Z,31.80
2018-12-16T08:47:56.978Z,33.40
2018-12-16T08:48:56.981Z,33.90
2018-12-16T08:49:56.978Z,34.30
2018-12-16T08:50:56.963Z,33.50
2018-12-16T08:51:56.955Z,34.10
2018-12-16T08:52:56.945Z,34.80
2018-12-16T08:53:57.130Z,34.60
2018-12-16T08:54:56.933Z,33.90
2018-12-16T08:55:57.948Z,34.50
2018-12-16T08:56:56.889Z,34.10
2018-12-16T08:57:57.096Z,34.50
2018-12-16T08:58:56.877Z,34.80
2018-12-16T08:59:56.876Z,33.10
2018-12-16T09:00:57.078Z,35.20
2018-12-16T09:01:56.839Z,38.20
2018-12-16T09:02:56.832Z,34.60
2018-12-16T09:03:56.828Z,36.00
2018-12-16T09:04:56.813Z,36.10
2018-12-16T09:05:56.809Z,36.50
2018-12-16T09:06:56.809Z,35.50
2018-12-16T09:07:56.799Z,37.50
2018-12-16T09:08:56.777Z,36.90
2018-12-16T09:09:56.972Z,36.70
2018-12-16T09:10:56.760Z,35.90
2018-12-16T09:11:56.762Z,37.40
2018-12-16T09:12:56.773Z,34.20
2018-12-16T09:13:56.749Z,36.10
2018-12-16T09:14:56.722Z,36.40
2018-12-16T09:15:56.913Z,35.60
2018-12-16T09:16:56.706Z,37.30
2018-12-16T09:17:56.717Z,36.30
2018-12-16T09:18:56.674Z,36.40
2018-12-16T09:19:56.724Z,35.30
2018-12-16T09:20:56.685Z,36.80
2018-12-16T09:21:56.652Z,35.40
2018-12-16T09:22:56.647Z,35.20
2018-12-16T09:23:56.838Z,38.20
2018-12-16T09:24:56.622Z,38.80
2018-12-16T09:25:56.821Z,34.50
2018-12-16T09:26:56.804Z,33.30
2018-12-16T09:27:56.597Z,36.80
2018-12-16T09:28:56.595Z,39.90
2018-12-16T09:29:56.580Z,36.30
2018-12-16T09:30:58.194Z,35.70
2018-12-16T09:31:56.565Z,37.30
2018-12-16T09:32:56.553Z,37.20
2018-12-16T09:33:56.535Z,35.80
2018-12-16T09:34:56.529Z,37.00
2018-12-16T09:35:56.518Z,38.30
2018-12-16T09:36:56.502Z,36.10
2018-12-16T09:37:56.501Z,34.90
2018-12-16T09:38:56.489Z,35.30
2018-12-16T09:39:56.485Z,35.90
2018-12-16T09:40:56.467Z,35.20
2018-12-16T09:41:56.476Z,36.70
2018-12-16T09:42:56.459Z,36.90
2018-12-16T09:43:56.447Z,37.10
2018-12-16T09:44:56.628Z,37.60
2018-12-16T09:45:56.637Z,38.70
2018-12-16T09:46:56.407Z,37.50
2018-12-16T09:47:56.398Z,37.80
2018-12-16T09:48:56.391Z,38.70
2018-12-16T09:49:56.590Z,37.40
2018-12-16T09:50:56.379Z,39.20
2018-12-16T09:51:56.569Z,36.80
2018-12-16T09:52:56.366Z,38.80
2018-12-16T09:53:56.349Z,38.10
2018-12-16T09:54:56.337Z,35.30
2018-12-16T09:55:56.322Z,38.40
2018-12-16T09:56:56.523Z,36.00
2018-12-16T09:57:56.312Z,37.10
2018-12-16T09:58:56.293Z,38.00
2018-12-16T09:59:56.298Z,37.30
2018-12-16T10:00:56.278Z,37.20
2018-12-16T10:01:56.275Z,35.90
2018-12-16T10:02:56.255Z,38.40
2018-12-16T10:03:56.267Z,39.10
2018-12-16T10:04:56.234Z,39.00
2018-12-16T10:05:56.244Z,37.50
2018-12-16T10:06:56.221Z,34.90
2018-12-16T10:07:56.209Z,38.30
2018-12-16T10:08:56.401Z,37.70
2018-12-16T10:09:56.193Z,37.10
2018-12-16T10:10:56.176Z,36.60
2018-12-16T10:11:56.175Z,39.00
2018-12-16T10:12:56.176Z,37.30
2018-12-16T10:13:56.156Z,34.40
2018-12-16T10:14:56.139Z,38.10
2018-12-16T10:15:56.145Z,35.70
2018-12-16T10:16:56.121Z,36.90
2018-12-16T10:17:56.112Z,35.30
2018-12-16T10:18:56.111Z,34.10
2018-12-16T10:19:56.095Z,34.50
2018-12-16T10:20:56.090Z,33.50
2018-12-16T10:21:56.101Z,37.00
2018-12-16T10:22:56.069Z,34.00
2018-12-16T10:23:56.070Z,36.00
2018-12-16T10:24:56.052Z,34.10
2018-12-16T10:25:56.035Z,35.90
2018-12-16T10:26:56.049Z,36.10
2018-12-16T10:27:56.041Z,35.30
2018-12-16T10:28:56.015Z,36.50
2018-12-16T10:29:56.036Z,36.00
2018-12-16T10:30:55.996Z,36.50
2018-12-16T10:31:56.001Z,36.50
2018-12-16T10:32:55.989Z,37.90
2018-12-16T10:33:56.196Z,35.60
2018-12-16T10:34:56.155Z,34.90
2018-12-16T10:35:55.955Z,38.60
2018-12-16T10:36:55.950Z,35.60
2018-12-16T10:37:55.932Z,35.50
2018-12-16T10:38:55.919Z,36.90
2018-12-16T10:39:55.911Z,38.70
2018-12-16T10:40:56.114Z,35.90
2018-12-16T10:41:55.904Z,34.70
2018-12-16T10:42:55.890Z,36.80
2018-12-16T10:43:55.885Z,33.90
2018-12-16T10:44:55.864Z,37.10
2018-12-16T10:45:55.881Z,36.70
2018-12-16T10:46:55.858Z,36.60
2018-12-16T10:47:55.843Z,35.90
2018-12-16T10:48:55.822Z,34.70
2018-12-16T10:49:55.817Z,35.40
2018-12-16T10:50:55.805Z,34.80
2018-12-16T10:51:55.795Z,33.50
2018-12-16T10:52:56.000Z,35.00
2018-12-16T10:53:55.783Z,36.30
2018-12-16T10:54:58.577Z,34.50
2018-12-16T10:55:55.757Z,36.60
2018-12-16T10:56:55.776Z,37.20
2018-12-16T10:57:55.959Z,35.70
2018-12-16T10:58:55.731Z,35.30
2018-12-16T10:59:55.728Z,35.60
2018-12-16T11:00:55.714Z,36.00
2018-12-16T11:01:55.724Z,38.50
2018-12-16T11:02:55.694Z,37.40
2018-12-16T11:03:55.691Z,34.80
2018-12-16T11:04:55.683Z,35.40
2018-12-16T11:05:55.676Z,36.70
2018-12-16T11:06:55.657Z,35.30
2018-12-16T11:07:55.653Z,35.60
2018-12-16T11:08:55.645Z,35.80
2018-12-16T11:09:55.630Z,35.60
2018-12-16T11:10:55.655Z,35.50
2018-12-16T11:11:55.629Z,36.30
2018-12-16T11:12:55.611Z,36.30
2018-12-16T11:13:55.595Z,37.10
2018-12-16T11:14:55.787Z,36.30
2018-12-16T11:15:55.589Z,35.40
2018-12-16T11:16:55.581Z,39.00
2018-12-16T11:17:55.564Z,36.40
2018-12-16T11:18:55.557Z,35.70
2018-12-16T11:19:55.534Z,36.50
2018-12-16T11:20:55.537Z,36.70
2018-12-16T11:21:55.597Z,36.40
2018-12-16T11:22:55.530Z,36.40
2018-12-16T11:23:55.527Z,35.70
2018-12-16T11:24:55.503Z,36.90
2018-12-16T11:25:55.683Z,35.50
2018-12-16T11:26:55.470Z,36.70
2018-12-16T11:27:55.484Z,35.50
2018-12-16T11:28:55.694Z,36.50
2018-12-16T11:29:55.440Z,35.40
2018-12-16T11:30:55.434Z,33.90
2018-12-16T11:31:55.431Z,37.20
2018-12-16T11:32:55.432Z,39.40
2018-12-16T11:33:55.407Z,37.30
2018-12-16T11:34:55.403Z,37.20
2018-12-16T11:35:55.389Z,36.90
2018-12-16T11:36:55.589Z,36.50
2018-12-16T11:37:55.573Z,33.90
2018-12-16T11:38:55.567Z,38.00
2018-12-16T11:39:55.359Z,36.90
2018-12-16T11:40:55.356Z,37.20
2018-12-16T11:41:55.333Z,37.90
2018-12-16T11:42:55.334Z,38.50
2018-12-16T11:43:55.315Z,37.80
2018-12-16T11:44:55.510Z,40.40
2018-12-16T11:45:55.499Z,39.10
2018-12-16T11:46:55.292Z,40.00
2018-12-16T11:47:55.288Z,40.40
2018-12-16T11:48:55.282Z,38.40
2018-12-16T11:49:55.271Z,38.90
2018-12-16T11:50:55.251Z,36.60
2018-12-16T11:51:55.246Z,36.20
2018-12-16T11:52:55.438Z,40.90
2018-12-16T11:53:55.224Z,37.70
2018-12-16T11:54:55.224Z,38.50
2018-12-16T11:55:55.212Z,36.90
2018-12-16T11:56:55.242Z,37.20
2018-12-16T11:57:55.191Z,40.60
2018-12-16T11:58:55.384Z,41.80
2018-12-16T11:59:55.187Z,41.50
2018-12-16T12:00:55.192Z,39.70
2018-12-16T12:01:55.359Z,42.10
2018-12-16T12:02:55.144Z,41.00
2018-12-16T12:03:55.132Z,37.70
2018-12-16T12:04:55.172Z,41.10
2018-12-16T12:05:55.121Z,40.00
2018-12-16T12:06:55.180Z,42.40
2018-12-16T12:07:55.111Z,41.00
2018-12-16T12:08:55.096Z,38.50
2018-12-16T12:09:55.283Z,41.70
2018-12-16T12:10:55.095Z,43.40
2018-12-16T12:11:56.463Z,42.20
2018-12-16T12:12:55.051Z,43.70
2018-12-16T12:13:55.045Z,42.60
2018-12-16T12:14:55.238Z,44.60
2018-12-16T12:15:55.024Z,43.40
2018-12-16T12:16:55.032Z,39.70
2018-12-16T12:17:55.026Z,43.20
2018-12-16T12:18:55.002Z,43.60
2018-12-16T12:19:55.005Z,43.30
2018-12-16T12:20:54.988Z,43.60
2018-12-16T12:21:54.977Z,43.60
2018-12-16T12:22:55.192Z,41.50
2018-12-16T12:23:54.963Z,43.30
2018-12-16T12:24:54.947Z,42.90
2018-12-16T12:25:54.943Z,45.00
2018-12-16T12:26:54.933Z,40.80
2018-12-16T12:27:54.917Z,44.60
2018-12-16T12:28:54.913Z,44.80
2018-12-16T12:29:54.904Z,44.90
2018-12-16T12:30:54.903Z,44.20
2018-12-16T12:31:54.902Z,44.70
2018-12-16T12:32:54.879Z,46.30
2018-12-16T12:33:54.870Z,47.00
2018-12-16T12:34:54.861Z,43.70
2018-12-16T12:35:54.860Z,44.60
2018-12-16T12:36:54.849Z,46.30
2018-12-16T12:37:54.826Z,45.60
2018-12-16T12:38:54.827Z,44.30
2018-12-16T12:39:55.023Z,45.10
2018-12-16T12:40:54.817Z,44.40
2018-12-16T12:41:54.814Z,42.80
2018-12-16T12:42:54.795Z,42.20
2018-12-16T12:43:54.781Z,43.30
2018-12-16T12:44:54.975Z,43.40
2018-12-16T12:45:54.757Z,43.60
2018-12-16T12:46:54.751Z,42.90
2018-12-16T12:47:54.738Z,43.00
2018-12-16T12:48:54.737Z,42.90
2018-12-16T12:49:54.726Z,45.10
2018-12-16T12:50:54.735Z,46.60
2018-12-16T12:51:54.928Z,47.00